Time;durP1;ratioP1;P1;durP2;ratioP2;P2;SDS_P1;SDS_P2;PMS_P1;PMS_P2;Temp;Humidity;BMP_temperature;BMP_pressure;BME280_temperature;BME280_humidity;BME280_pressure;Samples;Min_cycle;Max_cycle;Signal;HPM_P1;HPM_P2
2021/09/16 00:00:10;;;;;;;5.30;3.25;;;;;;;18.55;68.65;100107.13;5108797;28;20067;-85
2021/09/16 00:02:37;;;;;;;6.03;3.00;;;;;;;18.49;68.91;100109.44;5111560;28;20508;-85
2021/09/16 00:05:07;;;;;;;8.43;4.00;;;;;;;18.56;67.65;100112.38;5109817;28;20062;-85
2021/09/16 00:07:34;;;;;;;6.10;2.90;;;;;;;18.51;67.64;100112.69;5109917;28;20056;-85
2021/09/16 00:10:05;;;;;;;5.03;2.50;;;;;;;18.43;67.33;100116.56;5107555;28;20067;-85
2021/09/16 00:12:33;;;;;;;4.63;2.72;;;;;;;18.35;67.22;100121.28;5106806;28;20067;-85
2021/09/16 00:15:00;;;;;;;8.32;2.75;;;;;;;18.35;67.38;100121.28;5107181;28;20488;-85
2021/09/16 00:17:28;;;;;;;5.93;2.70;;;;;;;18.41;67.58;100125.41;5104909;28;20060;-86
2021/09/16 00:19:55;;;;;;;4.85;2.63;;;;;;;18.42;67.18;100117.78;5105296;28;20067;-86
2021/09/16 00:22:23;;;;;;;6.85;2.60;;;;;;;18.34;67.59;100128.09;5106188;28;20094;-86
2021/09/16 00:24:50;;;;;;;6.60;2.95;;;;;;;18.40;66.94;100128.63;5105412;28;20066;-86
2021/09/16 00:27:19;;;;;;;8.00;2.75;;;;;;;18.39;67.01;100127.78;5102122;28;20064;-86
2021/09/16 00:29:47;;;;;;;4.35;2.75;;;;;;;18.38;67.39;100131.00;5101880;28;20068;-85
2021/09/16 00:32:14;;;;;;;4.75;2.45;;;;;;;18.39;67.09;100139.06;5102976;28;20060;-86
2021/09/16 00:34:41;;;;;;;4.47;2.42;;;;;;;18.28;66.93;100134.44;5102750;28;20056;-86
2021/09/16 00:37:09;;;;;;;4.32;2.08;;;;;;;18.33;66.85;100139.75;5103495;28;20427;-86
2021/09/16 00:39:36;;;;;;;4.30;2.13;;;;;;;18.34;66.86;100135.75;5104364;28;20055;-86
2021/09/16 00:42:04;;;;;;;5.57;2.00;;;;;;;18.29;66.61;100139.72;5101300;28;20048;-86
2021/09/16 00:44:33;;;;;;;4.35;1.60;;;;;;;18.31;65.87;100131.69;5106247;28;20060;-86
2021/09/16 00:47:01;;;;;;;4.47;1.58;;;;;;;18.22;65.60;100142.38;5103864;28;20166;-86
2021/09/16 00:49:28;;;;;;;7.47;1.85;;;;;;;18.16;65.59;100133.41;5104040;28;20063;-86
2021/09/16 00:51:59;;;;;;;3.58;1.50;;;;;;;18.18;65.73;100135.88;5106506;28;20062;-86
2021/09/16 00:54:28;;;;;;;6.05;1.65;;;;;;;18.16;65.42;100138.25;5112074;28;20048;-86
2021/09/16 00:56:56;;;;;;;4.32;1.42;;;;;;;18.12;65.58;100141.00;5101993;28;20063;-86
2021/09/16 00:59:25;;;;;;;4.72;1.55;;;;;;;18.06;65.65;100139.69;5103815;28;20118;-85
2021/09/16 01:01:53;;;;;;;5.07;1.53;;;;;;;18.04;65.58;100139.25;5106814;28;20044;-86
2021/09/16 01:04:21;;;;;;;3.03;1.40;;;;;;;17.97;66.06;100142.72;5100287;28;20063;-86
2021/09/16 01:06:48;;;;;;;3.13;1.50;;;;;;;17.98;65.47;100135.09;5105479;28;20468;-86
2021/09/16 01:09:16;;;;;;;4.35;1.40;;;;;;;17.94;65.42;100142.66;5100699;28;20079;-86
2021/09/16 01:11:43;;;;;;;3.05;1.33;;;;;;;17.90;65.72;100151.03;5102244;28;20055;-86
2021/09/16 01:14:11;;;;;;;4.45;1.50;;;;;;;17.89;65.66;100148.59;5100791;28;20056;-86
2021/09/16 01:16:39;;;;;;;3.55;1.60;;;;;;;17.82;65.84;100155.72;5101163;28;20060;-86
2021/09/16 01:19:08;;;;;;;3.95;1.35;;;;;;;17.76;65.82;100156.34;5103115;28;20064;-86
2021/09/16 01:21:35;;;;;;;5.15;1.73;;;;;;;17.74;65.82;100153.91;5102932;28;20079;-86
2021/09/16 01:24:05;;;;;;;4.82;1.60;;;;;;;17.69;66.06;100159.84;5105343;28;20059;-86
2021/09/16 01:26:32;;;;;;;6.43;1.50;;;;;;;17.69;65.85;100159.84;5104613;28;20543;-86
2021/09/16 01:28:59;;;;;;;2.45;1.42;;;;;;;17.66;66.39;100163.41;5103706;28;20052;-86
2021/09/16 01:31:34;;;;;;;5.65;1.70;;;;;;;17.63;66.73;100158.50;5105155;28;20052;-86
2021/09/16 01:34:04;;;;;;;3.42;1.55;;;;;;;17.62;66.83;100166.16;5104239;28;20481;-86
2021/09/16 01:36:31;;;;;;;;;;;;;;;17.60;68.00;100165.69;5105015;28;20052;-86
2021/09/16 01:39:00;;;;;;;5.25;1.65;;;;;;;17.60;66.92;100170.53;5104587;28;19920;-86
2021/09/16 01:41:29;;;;;;;5.47;1.90;;;;;;;17.62;67.35;100162.53;5103371;28;20059;-86
2021/09/16 01:43:56;;;;;;;6.57;1.63;;;;;;;17.59;67.37;100163.25;5104014;28;20060;-86
2021/09/16 01:46:24;;;;;;;4.10;1.83;;;;;;;17.62;67.56;100159.72;5103224;28;20070;-87
2021/09/16 01:48:51;;;;;;;2.88;1.73;;;;;;;17.65;67.83;100167.41;5104266;28;20059;-86
2021/09/16 01:51:19;;;;;;;8.02;1.80;;;;;;;17.68;67.74;100168.66;5104139;28;20394;-87
2021/09/16 01:53:46;;;;;;;5.25;2.10;;;;;;;17.66;67.41;100169.06;5103033;28;20067;-86
2021/09/16 01:56:14;;;;;;;5.07;2.00;;;;;;;17.65;67.05;100170.22;5103828;28;20052;-88
2021/09/16 01:58:45;;;;;;;3.75;1.42;;;;;;;17.60;66.77;100181.78;5105489;28;20059;-86
2021/09/16 02:01:13;;;;;;;3.25;1.63;;;;;;;17.56;67.12;100173.25;5105541;28;20489;-86
2021/09/16 02:03:40;;;;;;;3.70;1.95;;;;;;;17.53;66.60;100179.59;5105046;28;20052;-86
2021/09/16 02:06:08;;;;;;;4.80;2.00;;;;;;;17.55;66.42;100179.25;5105102;28;20421;-86
2021/09/16 02:08:36;;;;;;;5.13;1.67;;;;;;;17.54;65.98;100184.06;5102530;28;20464;-87
2021/09/16 02:11:04;;;;;;;4.72;1.73;;;;;;;17.42;65.96;100196.28;5104099;28;20052;-86
2021/09/16 02:13:32;;;;;;;3.92;1.90;;;;;;;17.38;66.44;100192.56;5102210;28;20409;-88
2021/09/16 02:16:00;;;;;;;3.83;1.83;;;;;;;17.37;66.68;100196.56;5100955;28;20052;-86
2021/09/16 02:18:28;;;;;;;4.35;1.80;;;;;;;17.20;67.04;100192.16;5101562;28;20067;-86
2021/09/16 02:20:55;;;;;;;3.80;1.73;;;;;;;17.28;67.44;100200.75;5100906;28;20060;-87
2021/09/16 02:23:26;;;;;;;3.13;1.73;;;;;;;17.33;67.20;100198.50;5100625;28;20059;-87
2021/09/16 02:25:53;;;;;;;4.55;2.17;;;;;;;17.31;67.86;100198.03;5101878;28;20485;-86
2021/09/16 02:28:21;;;;;;;6.25;1.90;;;;;;;17.33;67.82;100192.84;5101224;28;20048;-88
2021/09/16 02:30:48;;;;;;;7.25;2.20;;;;;;;17.20;68.16;100199.81;5103009;28;20083;-88
2021/09/16 02:33:17;;;;;;;4.55;2.05;;;;;;;17.29;67.90;100202.41;5101757;28;20048;-88
2021/09/16 02:35:51;;;;;;;5.03;2.17;;;;;;;17.25;67.91;100211.56;5100030;28;20049;-86
2021/09/16 02:38:20;;;;;;;4.90;2.00;;;;;;;17.33;67.92;100206.94;5092572;28;20059;-86
2021/09/16 02:40:50;;;;;;;6.97;2.05;;;;;;;17.24;68.42;100197.88;5100367;28;20052;-87
2021/09/16 02:43:17;;;;;;;3.10;1.98;;;;;;;17.30;68.34;100201.22;5101729;28;20060;-86
2021/09/16 02:45:46;;;;;;;3.47;2.08;;;;;;;17.22;68.14;100200.25;5101020;28;20056;-88
2021/09/16 02:48:14;;;;;;;5.37;2.27;;;;;;;17.26;68.87;100201.16;5110624;28;20052;-86
2021/09/16 02:50:42;;;;;;;5.28;2.33;;;;;;;17.31;68.34;100198.03;5120614;28;20062;-86
2021/09/16 02:53:10;;;;;;;5.35;2.25;;;;;;;17.22;68.52;100198.25;5123020;28;20055;-86
2021/09/16 02:55:37;;;;;;;6.88;2.50;;;;;;;17.09;67.70;100207.97;5121170;28;20432;-86
2021/09/16 02:58:05;;;;;;;4.57;2.45;;;;;;;17.20;67.77;100205.44;5121042;28;20067;-86
2021/09/16 03:00:33;;;;;;;6.82;2.55;;;;;;;17.18;67.26;100207.78;5121840;28;20060;-86
2021/09/16 03:03:00;;;;;;;4.28;2.40;;;;;;;17.20;67.11;100211.88;5122426;28;20056;-86
2021/09/16 03:05:28;;;;;;;5.70;2.47;;;;;;;17.15;67.32;100211.31;5125493;28;20054;-86
2021/09/16 03:07:57;;;;;;;3.70;2.20;;;;;;;17.01;67.05;100207.00;5122971;28;20492;-85
2021/09/16 03:10:24;;;;;;;10.88;3.38;;;;;;;17.08;66.96;100211.16;5122496;28;20059;-86
2021/09/16 03:12:52;;;;;;;6.53;2.65;;;;;;;17.12;66.36;100206.44;5121835;28;20059;-86
2021/09/16 03:15:20;;;;;;;3.40;2.67;;;;;;;17.13;66.33;100216.50;5122312;28;20059;-85
2021/09/16 03:17:47;;;;;;;5.60;2.80;;;;;;;16.90;67.18;100211.53;5124417;28;20055;-86
2021/09/16 03:20:15;;;;;;;5.63;3.17;;;;;;;16.93;67.28;100210.81;5111894;28;20485;-86
2021/09/16 03:22:43;;;;;;;6.68;3.00;;;;;;;17.01;66.89;100203.38;5101906;28;20055;-86
2021/09/16 03:25:12;;;;;;;5.10;3.13;;;;;;;16.98;67.32;100218.97;5102105;28;20052;-87
2021/09/16 03:27:40;;;;;;;6.43;2.85;;;;;;;16.97;67.30;100216.53;5101171;28;20052;-87
2021/09/16 03:30:11;;;;;;;5.45;2.83;;;;;;;16.98;67.75;100210.53;5082203;28;20476;-86
2021/09/16 03:32:39;;;;;;;5.60;3.10;;;;;;;17.00;67.99;100199.72;5101608;28;20420;-86
2021/09/16 03:35:08;;;;;;;5.35;3.33;;;;;;;17.09;67.29;100204.34;5100605;28;20060;-86
2021/09/16 03:37:35;;;;;;;5.30;3.53;;;;;;;17.02;67.91;100202.97;5101332;28;20052;-86
2021/09/16 03:40:04;;;;;;;4.38;2.97;;;;;;;17.02;67.62;100202.97;5101928;28;20056;-86
2021/09/16 03:42:35;;;;;;;6.32;3.10;;;;;;;17.08;67.12;100211.16;5104038;28;20056;-87
2021/09/16 03:45:03;;;;;;;5.57;2.95;;;;;;;17.04;67.60;100213.88;5103010;28;20404;-86
2021/09/16 03:47:31;;;;;;;5.88;3.08;;;;;;;17.01;67.85;100212.63;5102443;28;20052;-86
2021/09/16 03:49:58;;;;;;;5.75;2.90;;;;;;;16.93;68.12;100212.81;5102447;28;20056;-86
2021/09/16 03:52:25;;;;;;;3.97;2.50;;;;;;;16.93;67.77;100215.63;5101063;28;20052;-87
2021/09/16 03:54:53;;;;;;;6.65;3.08;;;;;;;16.91;67.47;100212.38;5100567;28;20071;-86
2021/09/16 03:57:20;;;;;;;7.80;2.40;;;;;;;16.89;67.41;100217.53;5100303;28;20052;-86
2021/09/16 03:59:49;;;;;;;5.43;2.20;;;;;;;16.91;67.38;100223.63;5101874;28;20059;-86
2021/09/16 04:02:16;;;;;;;3.87;2.00;;;;;;;16.96;67.02;100214.88;5100884;28;20051;-86
2021/09/16 04:04:44;;;;;;;4.80;2.25;;;;;;;16.88;67.14;100216.69;5102819;28;20481;-86
2021/09/16 04:07:11;;;;;;;5.40;2.30;;;;;;;16.85;67.21;100214.63;5101308;28;20060;-86
2021/09/16 04:09:38;;;;;;;5.38;2.22;;;;;;;16.78;67.52;100217.22;5102004;28;20059;-86
2021/09/16 04:12:10;;;;;;;4.88;2.00;;;;;;;16.77;67.56;100219.22;5102236;28;20047;-86
2021/09/16 04:14:38;;;;;;;7.65;2.28;;;;;;;16.76;67.26;100228.03;5102575;28;20051;-86
2021/09/16 04:17:07;;;;;;;5.95;2.10;;;;;;;16.81;67.10;100224.97;5101544;28;20055;-86
2021/09/16 04:19:34;;;;;;;3.65;1.95;;;;;;;16.60;67.80;100231.63;5101430;28;20063;-86
2021/09/16 04:22:01;;;;;;;4.57;1.77;;;;;;;16.61;67.67;100226.84;5102857;28;20052;-86
2021/09/16 04:24:29;;;;;;;4.28;1.73;;;;;;;16.52;67.90;100229.81;5101173;28;20052;-86
2021/09/16 04:26:57;;;;;;;4.43;2.03;;;;;;;16.39;68.16;100219.81;5101716;28;20062;-87
2021/09/16 04:29:24;;;;;;;3.90;1.70;;;;;;;16.42;68.11;100219.94;5102502;28;20052;-87
2021/09/16 04:31:51;;;;;;;5.50;1.75;;;;;;;16.39;67.91;100225.44;5102432;28;20052;-87
2021/09/16 04:34:22;;;;;;;5.40;1.58;;;;;;;16.31;68.23;100226.41;5101842;28;20063;-87
2021/09/16 04:36:50;;;;;;;5.20;1.95;;;;;;;16.24;68.62;100219.41;5103470;28;20416;-87
2021/09/16 04:39:17;;;;;;;5.40;1.55;;;;;;;16.14;69.00;100224.75;5101215;28;20408;-87
2021/09/16 04:41:45;;;;;;;4.50;1.70;;;;;;;16.22;68.51;100221.78;5103743;28;20524;-87
2021/09/16 04:44:14;;;;;;;8.93;2.10;;;;;;;16.06;69.78;100228.53;5101962;28;20056;-86
2021/09/16 04:46:42;;;;;;;5.13;1.98;;;;;;;16.21;69.07;100217.34;5099970;28;20087;-87
2021/09/16 04:49:09;;;;;;;5.63;2.08;;;;;;;16.29;69.04;100214.72;5101041;28;20400;-87
2021/09/16 04:51:41;;;;;;;7.38;2.40;;;;;;;16.14;69.77;100219.94;5101383;28;20071;-87
2021/09/16 04:54:08;;;;;;;7.45;2.30;;;;;;;16.33;69.19;100224.06;5103795;28;20048;-87
2021/09/16 04:56:36;;;;;;;5.15;2.25;;;;;;;16.38;68.80;100218.19;5105057;28;20059;-86
2021/09/16 04:59:06;;;;;;;5.97;2.83;;;;;;;16.32;69.19;100231.69;5106271;28;20052;-87
2021/09/16 05:01:33;;;;;;;8.10;2.60;;;;;;;16.26;69.36;100235.94;5106508;28;20056;-86
2021/09/16 05:04:01;;;;;;;4.13;2.20;;;;;;;16.15;69.76;100232.81;5106176;28;20051;-86
2021/09/16 05:06:28;;;;;;;6.47;2.47;;;;;;;16.31;69.30;100230.03;5107823;28;20048;-86
2021/09/16 05:08:57;;;;;;;6.50;2.47;;;;;;;16.41;69.47;100229.53;5105752;28;20066;-87
2021/09/16 05:11:25;;;;;;;6.22;2.80;;;;;;;16.33;69.49;100244.56;5107077;28;20052;-86
2021/09/16 05:13:52;;;;;;;6.50;2.75;;;;;;;16.40;69.41;100239.16;5107584;28;20062;-86
2021/09/16 05:16:20;;;;;;;7.60;3.30;;;;;;;16.52;68.96;100241.06;5088283;28;20504;-86
2021/09/16 05:18:47;;;;;;;8.18;2.78;;;;;;;16.50;69.09;100251.03;5106507;28;20056;-87
2021/09/16 05:21:14;;;;;;;7.60;3.00;;;;;;;16.56;68.85;100252.41;5089331;28;20063;-86
2021/09/16 05:23:42;;;;;;;8.45;3.20;;;;;;;16.48;69.06;100250.56;5085613;28;20408;-86
2021/09/16 05:26:11;;;;;;;6.35;2.90;;;;;;;16.46;69.16;100250.91;5086814;28;20070;-87
2021/09/16 05:28:38;;;;;;;10.60;3.97;;;;;;;16.47;69.42;100252.56;5086306;28;20064;-86
2021/09/16 05:31:06;;;;;;;8.98;4.03;;;;;;;16.54;69.07;100252.75;5085823;28;20051;-86
2021/09/16 05:33:34;;;;;;;10.70;3.63;;;;;;;16.41;69.55;100257.63;5086800;28;20060;-86
2021/09/16 05:36:03;;;;;;;9.35;3.78;;;;;;;16.32;69.80;100253.38;5085884;28;20481;-86
2021/09/16 05:38:31;;;;;;;9.48;4.05;;;;;;;16.18;70.24;100260.19;5085129;28;20059;-86
2021/09/16 05:40:58;;;;;;;8.15;3.67;;;;;;;16.05;70.67;100255.00;5085231;28;20068;-87
2021/09/16 05:43:27;;;;;;;9.07;4.20;;;;;;;16.14;70.63;100261.28;5085980;28;20073;-86
2021/09/16 05:45:55;;;;;;;8.10;4.20;;;;;;;16.13;70.44;100252.03;5084978;28;20135;-87
2021/09/16 05:48:23;;;;;;;7.20;3.58;;;;;;;15.97;71.22;100262.41;5096268;28;20062;-87
2021/09/16 05:50:51;;;;;;;12.23;4.00;;;;;;;16.09;70.53;100261.53;5104814;28;20059;-87
2021/09/16 05:53:19;;;;;;;9.82;4.53;;;;;;;15.97;71.48;100271.63;5105863;28;20052;-87
2021/09/16 05:55:47;;;;;;;5.97;3.90;;;;;;;16.08;70.85;100268.31;5105280;28;20056;-86
2021/09/16 05:58:17;;;;;;;8.82;3.92;;;;;;;16.11;71.12;100270.44;5105140;28;20063;-87
2021/09/16 06:00:46;;;;;;;6.50;4.30;;;;;;;16.37;70.52;100276.38;5107498;28;20496;-86
2021/09/16 06:03:13;;;;;;;7.22;3.58;;;;;;;16.41;70.55;100274.50;5104336;28;20393;-88
2021/09/16 06:05:41;;;;;;;7.55;4.25;;;;;;;16.41;70.37;100273.69;5106265;28;20052;-87
2021/09/16 06:08:08;;;;;;;11.25;4.57;;;;;;;16.35;70.48;100277.94;5102680;28;20063;-87
2021/09/16 06:10:35;;;;;;;10.43;4.82;;;;;;;16.44;70.01;100285.03;5104624;28;20048;-87
2021/09/16 06:13:03;;;;;;;10.43;4.75;;;;;;;16.55;70.09;100290.97;5106091;28;20081;-86
2021/09/16 06:15:31;;;;;;;8.77;5.10;;;;;;;16.52;69.76;100290.84;5105563;28;20052;-87
2021/09/16 06:17:59;;;;;;;11.30;4.40;;;;;;;16.67;69.60;100280.81;5105346;28;20052;-88
2021/09/16 06:20:27;;;;;;;11.15;4.80;;;;;;;16.80;69.13;100276.75;5105330;28;20052;-86
2021/09/16 06:22:55;;;;;;;11.32;5.70;;;;;;;16.96;68.18;100288.03;5106540;28;20405;-87
2021/09/16 06:25:22;;;;;;;11.98;6.60;;;;;;;16.90;68.21;100290.28;5105670;28;20052;-86
2021/09/16 06:27:50;;;;;;;16.35;8.32;;;;;;;16.85;68.61;100287.75;5105088;28;20507;-86
2021/09/16 06:30:17;;;;;;;18.00;8.45;;;;;;;16.91;68.42;100286.31;5104498;28;20059;-87
2021/09/16 06:32:46;;;;;;;14.20;6.50;;;;;;;17.00;68.42;100292.56;5104041;28;20048;-86
2021/09/16 06:35:16;;;;;;;13.07;7.28;;;;;;;17.14;67.63;100292.13;5105420;28;20059;-86
2021/09/16 06:37:46;;;;;;;15.07;8.82;;;;;;;17.28;67.68;100296.47;5105858;28;20064;-86
2021/09/16 06:40:14;;;;;;;8.60;4.15;;;;;;;17.49;66.64;100287.72;5106093;28;20056;-86
2021/09/16 06:42:42;;;;;;;6.63;3.00;;;;;;;17.62;65.76;100295.72;5105463;28;20060;-88
2021/09/16 06:45:11;;;;;;;7.53;3.58;;;;;;;17.74;65.49;100297.56;5106097;28;20059;-87
2021/09/16 06:47:39;;;;;;;10.55;8.13;;;;;;;17.48;65.87;100297.38;5104927;28;20523;-87
2021/09/16 06:50:07;;;;;;;8.35;4.07;;;;;;;17.64;65.98;100298.16;5086735;28;20048;-87
2021/09/16 06:52:36;;;;;;;5.78;3.75;;;;;;;17.86;64.88;100293.84;5106535;28;20060;-87
2021/09/16 06:55:05;;;;;;;8.80;4.10;;;;;;;17.78;65.09;100292.03;5104999;28;20056;-87
2021/09/16 06:57:33;;;;;;;7.18;3.78;;;;;;;17.89;65.37;100297.94;5105425;28;20515;-87
2021/09/16 07:00:00;;;;;;;8.15;3.53;;;;;;;17.80;65.30;100298.91;5105166;28;20052;-87
2021/09/16 07:02:28;;;;;;;9.00;4.47;;;;;;;17.80;65.32;100293.28;5105021;28;20067;-87
2021/09/16 07:04:55;;;;;;;7.10;3.85;;;;;;;17.59;65.85;100298.44;5103893;28;20063;-86
2021/09/16 07:07:22;;;;;;;8.07;4.72;;;;;;;17.68;65.69;100310.34;5104087;28;20071;-88
2021/09/16 07:09:51;;;;;;;9.38;4.80;;;;;;;17.81;65.68;100309.03;5103784;28;20055;-87
2021/09/16 07:12:19;;;;;;;8.10;4.78;;;;;;;17.65;65.64;100308.22;5103110;28;20056;-87
2021/09/16 07:14:46;;;;;;;8.85;5.50;;;;;;;17.63;65.77;100302.16;5104951;28;20063;-87
2021/09/16 07:17:16;;;;;;;8.07;5.20;;;;;;;17.65;66.95;100311.88;5105682;28;20059;-87
2021/09/16 07:19:43;;;;;;;8.38;6.30;;;;;;;17.63;68.01;100302.16;5102938;28;20060;-87
2021/09/16 07:22:11;;;;;;;7.68;5.78;;;;;;;17.51;68.77;100307.91;5103559;28;20048;-87
2021/09/16 07:24:38;;;;;;;9.90;6.45;;;;;;;17.64;68.93;100317.88;5104452;28;20052;-87
2021/09/16 07:27:08;;;;;;;11.18;6.65;;;;;;;17.81;68.48;100306.19;5103581;28;20058;-88
2021/09/16 07:29:35;;;;;;;8.30;5.72;;;;;;;17.76;67.92;100303.66;5103818;28;20058;-87
2021/09/16 07:32:02;;;;;;;9.60;6.18;;;;;;;17.81;67.81;100306.19;5102037;28;20048;-87
2021/09/16 07:34:30;;;;;;;8.82;6.63;;;;;;;17.98;66.92;100315.47;5103760;28;20051;-87
2021/09/16 07:36:58;;;;;;;12.50;6.78;;;;;;;17.85;67.75;100321.22;5104076;28;20058;-87
2021/09/16 07:39:25;;;;;;;11.48;7.35;;;;;;;17.82;67.70;100324.75;5103631;28;20059;-87
2021/09/16 07:41:53;;;;;;;8.30;6.93;;;;;;;17.82;67.11;100326.72;5105388;28;20063;-86
2021/09/16 07:44:22;;;;;;;10.18;7.25;;;;;;;17.41;68.81;100323.38;5104784;28;20056;-87
2021/09/16 07:46:49;;;;;;;10.80;6.95;;;;;;;17.70;68.50;100312.75;5106021;28;20052;-86
2021/09/16 07:49:17;;;;;;;9.93;7.18;;;;;;;17.67;68.21;100322.78;5104641;28;20048;-86
2021/09/16 07:51:44;;;;;;;10.90;6.88;;;;;;;17.80;67.88;100320.66;5103941;28;20071;-87
2021/09/16 07:54:12;;;;;;;8.80;7.82;;;;;;;17.80;67.27;100326.28;5103965;28;20118;-87
2021/09/16 07:56:40;;;;;;;9.00;7.20;;;;;;;17.88;67.59;100325.31;5102903;28;20056;-86
2021/09/16 07:59:08;;;;;;;9.23;6.80;;;;;;;17.90;67.79;100324.94;5104294;28;20048;-86
2021/09/16 08:01:37;;;;;;;10.25;7.35;;;;;;;17.95;67.45;100331.09;5103842;28;20062;-87
2021/09/16 08:04:07;;;;;;;10.70;8.40;;;;;;;17.81;67.42;100327.94;5103921;28;20051;-86
2021/09/16 08:06:35;;;;;;;15.52;10.40;;;;;;;17.69;67.95;100331.69;5102394;28;20055;-87
2021/09/16 08:09:03;;;;;;;11.32;7.97;;;;;;;17.65;68.08;100333.59;5103603;28;20052;-88
2021/09/16 08:11:30;;;;;;;11.73;9.13;;;;;;;17.56;68.16;100335.78;5103742;28;20052;-88
2021/09/16 08:13:58;;;;;;;11.18;9.07;;;;;;;17.49;68.25;100333.63;5103817;28;20059;-88
2021/09/16 08:16:26;;;;;;;10.95;9.00;;;;;;;17.58;68.40;100327.78;5103034;28;20412;-88
2021/09/16 08:18:54;;;;;;;12.68;9.25;;;;;;;17.78;67.79;100328.66;5103216;28;20048;-88
2021/09/16 08:21:23;;;;;;;9.60;8.60;;;;;;;17.87;67.84;100328.47;5103874;28;20056;-88
2021/09/16 08:23:51;;;;;;;11.77;9.35;;;;;;;17.80;68.01;100343.19;5101196;28;20428;-88
2021/09/16 08:26:18;;;;;;;12.07;10.88;;;;;;;17.92;67.68;100345.13;5100614;28;20059;-88
2021/09/16 08:28:47;;;;;;;13.90;10.73;;;;;;;17.96;67.06;100340.38;5104502;28;20067;-87
2021/09/16 08:31:15;;;;;;;11.50;10.18;;;;;;;17.98;68.00;100352.09;5101772;28;20059;-86
2021/09/16 08:33:42;;;;;;;12.00;10.65;;;;;;;18.02;67.82;100351.00;5102909;28;20056;-86
2021/09/16 08:36:11;;;;;;;12.70;10.57;;;;;;;17.89;68.20;100349.50;5103369;28;20052;-86
2021/09/16 08:38:39;;;;;;;13.63;11.50;;;;;;;17.75;68.38;100357.56;5102489;28;20052;-85
2021/09/16 08:41:07;;;;;;;12.85;11.55;;;;;;;17.80;69.29;100355.28;5101329;28;20056;-87
2021/09/16 08:43:36;;;;;;;15.80;13.20;;;;;;;17.93;68.95;100358.84;5101310;28;20059;-87
2021/09/16 08:46:04;;;;;;;15.18;11.50;;;;;;;18.01;68.96;100354.16;5102825;28;20060;-86
2021/09/16 08:48:32;;;;;;;12.73;11.43;;;;;;;18.12;68.80;100351.59;5103778;28;20059;-86
2021/09/16 08:51:00;;;;;;;16.33;11.57;;;;;;;18.20;68.45;100351.38;5104204;28;20488;-87
2021/09/16 08:53:30;;;;;;;12.63;10.77;;;;;;;18.11;67.70;100347.97;5102585;28;20051;-86
2021/09/16 08:56:03;;;;;;;12.45;11.10;;;;;;;18.12;67.79;100354.41;5102623;28;20052;-88
2021/09/16 08:58:31;;;;;;;12.32;10.35;;;;;;;18.22;68.17;100351.81;5101909;28;20063;-87
2021/09/16 09:00:59;;;;;;;13.15;11.18;;;;;;;18.31;67.92;100351.63;5103383;28;20051;-87
2021/09/16 09:03:27;;;;;;;14.32;11.30;;;;;;;18.40;67.43;100349.41;5102655;28;20063;-87
2021/09/16 09:05:54;;;;;;;15.50;11.80;;;;;;;18.47;67.19;100345.91;5103793;28;20062;-87
2021/09/16 09:08:26;;;;;;;14.45;12.85;;;;;;;18.54;66.37;100339.59;5101801;28;20055;-87
2021/09/16 09:10:58;;;;;;;15.27;13.07;;;;;;;18.32;66.87;100352.44;5104729;28;20062;-87
2021/09/16 09:13:32;;;;;;;15.48;13.25;;;;;;;18.50;66.72;100342.34;5102904;28;20052;-86
2021/09/16 09:16:01;;;;;;;15.35;12.60;;;;;;;18.46;66.83;100341.47;5099088;28;20059;-87
2021/09/16 09:18:41;;;;;;;16.45;13.35;;;;;;;18.60;66.17;100350.19;5101044;28;20060;-87
2021/09/16 09:21:11;;;;;;;20.98;13.05;;;;;;;18.61;65.96;100353.84;5102389;28;20075;-87
2021/09/16 09:23:38;;;;;;;;;;;;;;;18.64;65.87;100358.72;5101201;28;20060;-87
2021/09/16 09:26:26;;;;;;;15.02;11.57;;;;;;;18.72;65.15;100354.88;5101778;28;19920;-87
2021/09/16 09:28:56;;;;;;;14.38;11.65;;;;;;;18.97;65.04;100360.22;5103641;28;20060;-87
2021/09/16 09:31:25;;;;;;;15.05;11.80;;;;;;;19.20;64.49;100363.06;5102957;28;20054;-87
2021/09/16 09:33:53;;;;;;;;;;;;;;;19.44;64.13;100359.03;5103734;28;20048;-87
2021/09/16 09:36:22;;;;;;;12.82;11.55;;;;;;;19.09;64.23;100357.22;5101686;28;19920;-87
2021/09/16 09:38:56;;;;;;;14.57;12.23;;;;;;;19.01;64.64;100361.09;5101938;28;20059;-87
2021/09/16 09:41:32;;;;;;;13.70;11.25;;;;;;;19.57;62.98;100362.47;5104450;28;20060;-87
2021/09/16 09:44:10;;;;;;;14.40;11.15;;;;;;;19.94;61.91;100367.53;5107689;28;20052;-87
2021/09/16 09:46:46;;;;;;;14.43;11.68;;;;;;;19.82;61.93;100366.56;5106536;28;20059;-87
2021/09/16 09:49:15;;;;;;;14.85;11.52;;;;;;;20.03;61.48;100366.06;5105647;28;20051;-87
2021/09/16 09:51:45;;;;;;;13.50;9.88;;;;;;;19.70;62.36;100358.28;5107160;28;20052;-87
2021/09/16 09:54:15;;;;;;;11.27;10.15;;;;;;;19.99;61.38;100364.34;5107205;28;20056;-87
2021/09/16 09:56:58;;;;;;;11.65;10.45;;;;;;;19.92;61.54;100362.25;5105889;28;20056;-87
2021/09/16 09:59:29;;;;;;;13.30;10.85;;;;;;;19.66;62.12;100363.03;5106189;28;20063;-87
2021/09/16 10:02:04;;;;;;;13.20;10.60;;;;;;;19.24;63.30;100378.06;5106039;28;20056;-87
2021/09/16 10:04:31;;;;;;;15.25;11.52;;;;;;;19.34;63.29;100374.63;5106601;28;20056;-87
2021/09/16 10:06:59;;;;;;;14.13;12.73;;;;;;;19.11;64.11;100370.94;5105741;28;20521;-86
2021/09/16 10:09:27;;;;;;;14.38;11.75;;;;;;;19.26;64.12;100367.22;5105002;28;20060;-87
2021/09/16 10:11:58;;;;;;;13.55;11.82;;;;;;;19.50;63.28;100360.34;5106872;28;20056;-86
2021/09/16 10:14:26;;;;;;;14.48;13.00;;;;;;;19.42;63.52;100362.25;5106934;28;20063;-86
2021/09/16 10:16:53;;;;;;;12.85;11.65;;;;;;;19.70;63.34;100360.25;5104636;28;20059;-87
2021/09/16 10:19:21;;;;;;;14.48;12.02;;;;;;;19.89;62.02;100360.19;5104405;28;20063;-86
2021/09/16 10:21:48;;;;;;;13.63;12.18;;;;;;;19.95;62.11;100355.00;5109660;28;20052;-87
2021/09/16 10:24:17;;;;;;;13.60;12.20;;;;;;;19.92;61.68;100359.41;5107949;28;20512;-86
2021/09/16 10:26:48;;;;;;;14.23;12.75;;;;;;;19.92;61.47;100373.56;5109635;28;20066;-87
2021/09/16 10:29:37;;;;;;;12.77;11.50;;;;;;;20.12;61.40;100368.63;5107310;28;20059;-85
2021/09/16 10:32:35;;;;;;;12.52;11.10;;;;;;;20.17;61.04;100373.91;5106932;28;20066;-86
2021/09/16 10:35:16;;;;;;;11.50;10.32;;;;;;;20.41;60.00;100371.81;5105980;28;20056;-86
2021/09/16 10:37:44;;;;;;;11.65;10.45;;;;;;;20.38;60.15;100373.41;5105614;28;20059;-86
2021/09/16 10:40:33;;;;;;;12.48;10.77;;;;;;;20.20;60.79;100373.19;5105432;28;20059;-87
2021/09/16 10:43:04;;;;;;;12.30;10.55;;;;;;;20.31;60.63;100364.03;5106692;28;20481;-87
2021/09/16 10:45:39;;;;;;;12.18;10.68;;;;;;;20.37;60.17;100376.59;5107827;28;20060;-87
2021/09/16 10:48:27;;;;;;;11.90;10.40;;;;;;;20.19;60.60;100368.69;5105574;28;20421;-87
2021/09/16 10:50:59;;;;;;;11.70;10.60;;;;;;;19.98;61.17;100379.72;5106247;28;20066;-87
2021/09/16 10:53:42;;;;;;;12.68;9.85;;;;;;;20.16;60.86;100369.47;5104255;28;20056;-87
2021/09/16 10:56:41;;;;;;;11.05;9.15;;;;;;;20.52;60.45;100363.50;5106572;28;20452;-87
2021/09/16 10:59:09;;;;;;;12.50;9.60;;;;;;;20.93;59.42;100369.25;5106580;28;20052;-87
2021/09/16 11:02:01;;;;;;;8.43;7.55;;;;;;;21.95;56.50;100361.28;5105381;28;20060;-87
2021/09/16 11:05:02;;;;;;;8.38;7.10;;;;;;;22.50;54.51;100361.19;5106581;28;20059;-87
2021/09/16 11:07:55;;;;;;;8.75;7.32;;;;;;;22.48;54.01;100361.56;5106255;28;20051;-87
2021/09/16 11:10:49;;;;;;;8.95;7.50;;;;;;;22.43;53.68;100367.66;5106076;28;20055;-87
2021/09/16 11:13:57;;;;;;;8.77;7.07;;;;;;;22.58;53.80;100362.03;5105963;28;20063;-87
2021/09/16 11:16:28;;;;;;;8.18;7.15;;;;;;;22.65;52.94;100350.69;5104242;28;20056;-87
2021/09/16 11:19:05;;;;;;;10.15;7.50;;;;;;;22.67;52.91;100356.78;5104437;28;20052;-86
2021/09/16 11:21:33;;;;;;;7.40;6.57;;;;;;;22.57;53.38;100366.06;5105030;28;20052;-87
2021/09/16 11:24:06;;;;;;;8.48;7.53;;;;;;;23.95;50.45;100348.84;5104098;28;20052;-86
2021/09/16 11:26:34;;;;;;;7.85;5.90;;;;;;;26.29;43.86;100346.97;5106173;28;20056;-86
2021/09/16 11:29:06;;;;;;;4.85;4.35;;;;;;;28.52;39.66;100346.31;5103957;28;20051;-86
2021/09/16 11:31:33;;;;;;;6.53;5.22;;;;;;;28.17;37.40;100345.75;5103245;28;20059;-87